Map

Track Data

SID SEASON NUMBER BASIN SUBBASIN NAME ISO_TIME NATURE LAT LON WMO_WIND WMO_PRES WMO_AGENCY TRACK_TYPE DIST2LAND LANDFALL IFLAG USA_AGENCY USA_ATCF_ID USA_LAT USA_LON USA_RECORD USA_STATUS USA_WIND USA_PRES USA_SSHS USA_R34_NE USA_R34_SE USA_R34_SW USA_R34_NW USA_R50_NE USA_R50_SE USA_R50_SW USA_R50_NW USA_R64_NE USA_R64_SE USA_R64_SW USA_R64_NW USA_POCI USA_ROCI USA_RMW USA_EYE TOKYO_LAT TOKYO_LON TOKYO_GRADE TOKYO_WIND TOKYO_PRES TOKYO_R50_DIR TOKYO_R50_LONG TOKYO_R50_SHORT TOKYO_R30_DIR TOKYO_R30_LONG TOKYO_R30_SHORT TOKYO_LAND CMA_LAT CMA_LON CMA_CAT CMA_WIND CMA_PRES HKO_LAT HKO_LON HKO_CAT HKO_WIND HKO_PRES NEWDELHI_LAT NEWDELHI_LON NEWDELHI_GRADE NEWDELHI_WIND NEWDELHI_PRES NEWDELHI_CI NEWDELHI_DP NEWDELHI_POCI REUNION_LAT REUNION_LON REUNION_TYPE REUNION_WIND REUNION_PRES REUNION_TNUM REUNION_CI REUNION_RMW REUNION_R34_NE REUNION_R34_SE REUNION_R34_SW REUNION_R34_NW REUNION_R50_NE REUNION_R50_SE REUNION_R50_SW REUNION_R50_NW REUNION_R64_NE REUNION_R64_SE REUNION_R64_SW REUNION_R64_NW BOM_LAT BOM_LON BOM_TYPE BOM_WIND BOM_PRES BOM_TNUM BOM_CI BOM_RMW BOM_R34_NE BOM_R34_SE BOM_R34_SW BOM_R34_NW BOM_R50_NE BOM_R50_SE BOM_R50_SW BOM_R50_NW BOM_R64_NE BOM_R64_SE BOM_R64_SW BOM_R64_NW BOM_ROCI BOM_POCI BOM_EYE BOM_POS_METHOD BOM_PRES_METHOD NADI_LAT NADI_LON NADI_CAT NADI_WIND NADI_PRES WELLINGTON_LAT WELLINGTON_LON WELLINGTON_WIND WELLINGTON_PRES DS824_LAT DS824_LON DS824_STAGE DS824_WIND DS824_PRES TD9636_LAT TD9636_LON TD9636_STAGE TD9636_WIND TD9636_PRES TD9635_LAT TD9635_LON TD9635_WIND TD9635_PRES TD9635_ROCI NEUMANN_LAT NEUMANN_LON NEUMANN_CLASS NEUMANN_WIND NEUMANN_PRES MLC_LAT MLC_LON MLC_CLASS MLC_WIND MLC_PRES USA_GUST BOM_GUST BOM_GUST_PER REUNION_GUST REUNION_GUST_PER USA_SEAHGT USA_SEARAD_NE USA_SEARAD_SE USA_SEARAD_SW USA_SEARAD_NW STORM_SPEED STORM_DIR
1896305N15301 1896 46 NA NA NOT_NAMED 1896-10-30 12:00:00 TS 15.0000 -59.0000 main 528 528 _____________O -1 15.0000 -59.0000 TD 25 10 16
1896305N15301 1896 46 NA NA NOT_NAMED 1896-10-30 15:00:00 TS 15.5000 -58.8601 main 583 583 _____________P -1 15.5000 -58.8601 TD 27 10 16
1896305N15301 1896 46 NA NA NOT_NAMED 1896-10-30 18:00:00 TS 16.0000 -58.7000 main 643 643 _____________O -1 16.0000 -58.7000 TD 30 11 19
1896305N15301 1896 46 NA NA NOT_NAMED 1896-10-30 21:00:00 TS 16.5000 -58.5075 main 703 703 _____________P -1 16.5000 -58.5075 TD 32 11 21
1896305N15301 1896 46 NA NA NOT_NAMED 1896-10-31 00:00:00 TS 17.0000 -58.3000 main 763 763 _____________O -1 17.0000 -58.3000 TS 35 11 21
1896305N15301 1896 46 NA NA NOT_NAMED 1896-10-31 03:00:00 TS 17.5000 -58.0999 main 797 796 _____________P -1 17.5000 -58.0999 TS 37 11 21
1896305N15301 1896 46 NA NA NOT_NAMED 1896-10-31 06:00:00 TS 18.0000 -57.9000 main 814 813 _____________O -1 18.0000 -57.9000 TS 40 11 20
1896305N15301 1896 46 NA NA NOT_NAMED 1896-10-31 09:00:00 TS 18.4999 -57.7147 main 833 833 _____________P -1 18.4999 -57.7147 TS 45 11 21
1896305N15301 1896 46 NA NA NOT_NAMED 1896-10-31 12:00:00 TS 19.0000 -57.5000 main 855 855 _____________O -1 19.0000 -57.5000 TS 50 11 25
1896305N15301 1896 46 NA NA NOT_NAMED 1896-10-31 15:00:00 TS 19.5000 -57.2150 main 891 891 _____________P -1 19.5000 -57.2150 TS 55 12 29
1896305N15301 1896 46 NA NA NOT_NAMED 1896-10-31 18:00:00 TS 20.0000 -56.9000 main 930 930 _____________O -1 20.0000 -56.9000 TS 60 12 30
1896305N15301 1896 46 NA NA NOT_NAMED 1896-10-31 21:00:00 TS 20.4999 -56.5998 main 972 972 _____________P -1 20.4999 -56.5998 TS 62 12 29
1896305N15301 1896 46 NA NA NOT_NAMED 1896-11-01 00:00:00 TS 21.0000 -56.3000 main 1015 1015 _____________O -1 21.0000 -56.3000 HU 65 11 29
1896305N15301 1896 46 NA NA NOT_NAMED 1896-11-01 03:00:00 TS 21.4999 -56.0072 main 1061 1061 _____________P -1 21.4999 -56.0072 HU 67 12 29
1896305N15301 1896 46 NA NA NOT_NAMED 1896-11-01 06:00:00 TS 22.0000 -55.7000 main 1108 1108 _____________O -1 22.0000 -55.7000 HU 70 12 30
1896305N15301 1896 46 NA NA NOT_NAMED 1896-11-01 09:00:00 TS 22.5224 -55.3724 main 1156 1156 _____________P -1 22.5224 -55.3724 HU 70 12 33
1896305N15301 1896 46 NA NA NOT_NAMED 1896-11-01 12:00:00 TS 23.0000 -55.0000 main 1215 1215 _____________O -1 23.0000 -55.0000 HU 70 11 41
1896305N15301 1896 46 NA NA NOT_NAMED 1896-11-01 15:00:00 TS 23.3650 -54.5646 main 1271 1271 _____________P -1 23.3650 -54.5646 HU 72 11 50
1896305N15301 1896 46 NA NA NOT_NAMED 1896-11-01 18:00:00 TS 23.7000 -54.1000 main 1331 1331 _____________O -1 23.7000 -54.1000 HU 75 11 49
1896305N15301 1896 46 NA NA NOT_NAMED 1896-11-01 21:00:00 TS 24.0924 -53.6424 main 1396 1396 _____________P -1 24.0924 -53.6424 HU 75 11 46
1896305N15301 1896 46 NA NA NOT_NAMED 1896-11-02 00:00:00 TS 24.5000 -53.2000 main 1451 1451 _____________O -1 24.5000 -53.2000 HU 75 11 43
1896305N15301 1896 46 NA NA NOT_NAMED 1896-11-02 03:00:00 TS 24.9073 -52.7997 main 1507 1507 _____________P -1 24.9073 -52.7997 HU 72 11 42
1896305N15301 1896 46 NA NA NOT_NAMED 1896-11-02 06:00:00 TS 25.3000 -52.4000 main 1563 1563 _____________O -1 25.3000 -52.4000 HU 70 11 44
1896305N15301 1896 46 NA NA NOT_NAMED 1896-11-02 09:00:00 TS 25.6723 -51.9723 main 1619 1619 _____________P -1 25.6723 -51.9723 HU 70 11 49
1896305N15301 1896 46 NA NA NOT_NAMED 1896-11-02 12:00:00 TS 26.0000 -51.5000 main 1679 1679 _____________O -1 26.0000 -51.5000 HU 70 11 57
1896305N15301 1896 46 NA NA NOT_NAMED 1896-11-02 15:00:00 TS 26.2649 -50.9647 main 1739 1739 _____________P -1 26.2649 -50.9647 HU 67 11 63
1896305N15301 1896 46 NA NA NOT_NAMED 1896-11-02 18:00:00 TS 26.5000 -50.4000 main 1802 1802 _____________O -1 26.5000 -50.4000 HU 65 11 64
1896305N15301 1896 46 NA NA NOT_NAMED 1896-11-02 21:00:00 TS 26.7498 -49.8498 main 1866 1866 _____________P -1 26.7498 -49.8498 HU 65 11 63
1896305N15301 1896 46 NA NA NOT_NAMED 1896-11-03 00:00:00 TS 27.0000 -49.3000 main 1925 1925 _____________O -1 27.0000 -49.3000 HU 65 11 63
1896305N15301 1896 46 NA NA NOT_NAMED 1896-11-03 03:00:00 TS 27.2497 -48.7572 main 1979 1979 _____________P -1 27.2497 -48.7572 HU 65 11 63
1896305N15301 1896 46 NA NA NOT_NAMED 1896-11-03 06:00:00 TS 27.5000 -48.2000 main 2047 2047 _____________O -1 27.5000 -48.2000 HU 65 11 64
1896305N15301 1896 46 NA NA NOT_NAMED 1896-11-03 09:00:00 TS 27.7269 -47.6366 main 2110 2110 _____________P -1 27.7269 -47.6366 HU 65 12 65
1896305N15301 1896 46 NA NA NOT_NAMED 1896-11-03 12:00:00 TS 28.0000 -47.0000 main 2140 2113 _____________O -1 28.0000 -47.0000 HU 65 14 62
1896305N15301 1896 46 NA NA NOT_NAMED 1896-11-03 15:00:00 TS 28.3849 -46.2377 main 2116 2091 _____________P -1 28.3849 -46.2377 HU 65 16 60
1896305N15301 1896 46 NA NA NOT_NAMED 1896-11-03 18:00:00 TS 28.8000 -45.4000 main 2094 2079 _____________O -1 28.8000 -45.4000 HU 65 17 63
1896305N15301 1896 46 NA NA NOT_NAMED 1896-11-03 21:00:00 TS 29.1497 -44.5492 main 2089 2069 _____________P -1 29.1497 -44.5492 HU 65 16 65
1896305N15301 1896 46 NA NA NOT_NAMED 1896-11-04 00:00:00 TS 29.5000 -43.7000 main 2073 2056 _____________O -1 29.5000 -43.7000 HU 65 16 63
1896305N15301 1896 46 NA NA NOT_NAMED 1896-11-04 03:00:00 TS 29.8994 -42.8921 main 2060 2046 _____________P -1 29.8994 -42.8921 HU 65 16 60
1896305N15301 1896 46 NA NA NOT_NAMED 1896-11-04 06:00:00 TS 30.3000 -42.1000 main 2050 2048 _____________O -1 30.3000 -42.1000 HU 65 16 64
1896305N15301 1896 46 NA NA NOT_NAMED 1896-11-04 09:00:00 TS 30.5752 -41.2532 main 2052 2048 _____________P -1 30.5752 -41.2532 HU 65 15 63
1896305N15301 1896 46 NA NA NOT_NAMED 1896-11-04 12:00:00 TS 31.0000 -40.5000 main 2048 1994 _____________O -1 31.0000 -40.5000 HU 65 17 42
1896305N15301 1896 46 NA NA NOT_NAMED 1896-11-04 15:00:00 TS 31.8242 -39.9547 main 1994 1928 _____________P -1 31.8242 -39.9547 HU 65 20 25
1896305N15301 1896 46 NA NA NOT_NAMED 1896-11-04 18:00:00 TS 32.8000 -39.5000 main 1923 1870 _____________O -1 32.8000 -39.5000 HU 65 20 24
1896305N15301 1896 46 NA NA NOT_NAMED 1896-11-04 21:00:00 TS 33.6498 -38.9988 main 1876 1823 _____________P -1 33.6498 -38.9988 HU 65 19 26
1896305N15301 1896 46 NA NA NOT_NAMED 1896-11-05 00:00:00 TS 34.5000 -38.5000 main 1823 1776 _____________O -1 34.5000 -38.5000 HU 65 19 25
1896305N15301 1896 46 NA NA NOT_NAMED 1896-11-05 03:00:00 TS 35.3998 -37.9992 main 1774 1730 _____________P -1 35.3998 -37.9992 HU 65 20 24
1896305N15301 1896 46 NA NA NOT_NAMED 1896-11-05 06:00:00 ET 36.3000 -37.5000 main 1730 1698 _____________O -1 36.3000 -37.5000 EX 65 20 27
1896305N15301 1896 46 NA NA NOT_NAMED 1896-11-05 09:00:00 ET 37.1879 -36.8901 main 1696 1662 _____________P -1 37.1879 -36.8901 EX 65 19 25
1896305N15301 1896 46 NA NA NOT_NAMED 1896-11-05 12:00:00 ET 38.0000 -36.5000 main 1662 1604 _____________O -1 38.0000 -36.5000 EX 65 15 8
1896305N15301 1896 46 NA NA NOT_NAMED 1896-11-05 15:00:00 ET 38.6874 -36.6345 main 1604 1536 _____________P -1 38.6874 -36.6345 EX 65 14 343
1896305N15301 1896 46 NA NA NOT_NAMED 1896-11-05 18:00:00 ET 39.3000 -37.0000 main 1536 1488 _____________O -1 39.3000 -37.0000 EX 65 13 343
1896305N15301 1896 46 NA NA NOT_NAMED 1896-11-05 21:00:00 ET 39.9356 -37.1253 main 1488 1422 _____________P -1 39.9356 -37.1253 EX 65 13 342
1896305N15301 1896 46 NA NA NOT_NAMED 1896-11-06 00:00:00 ET 40.5000 -37.5000 main 1422 1335 _____________O -1 40.5000 -37.5000 EX 65 14 315
1896305N15301 1896 46 NA NA NOT_NAMED 1896-11-06 03:00:00 ET 40.9389 -38.4645 main 1328 1227 _____________P -1 40.9389 -38.4645 EX 65 18 296
1896305N15301 1896 46 NA NA NOT_NAMED 1896-11-06 06:00:00 ET 41.3000 -39.7000 main 1220 1113 _____________O -1 41.3000 -39.7000 EX 65 20 293
1896305N15301 1896 46 NA NA NOT_NAMED 1896-11-06 09:00:00 ET 41.7491 -40.9520 main 1106 1019 _____________P -1 41.7491 -40.9520 EX 65 19 292
1896305N15301 1896 46 NA NA NOT_NAMED 1896-11-06 12:00:00 ET 42.0000 -42.0000 main 1019 992 _____________O -1 42.0000 -42.0000 EX 65 12 274
1896305N15301 1896 46 NA NA NOT_NAMED 1896-11-06 15:00:00 ET 41.8379 -42.5223 main 999 993 _____________P -1 41.8379 -42.5223 EX 65 8 230
1896305N15301 1896 46 NA NA NOT_NAMED 1896-11-06 18:00:00 ET 41.5000 -42.8000 main 1000 994 _____________O -1 41.5000 -42.8000 EX 65 8 219
1896305N15301 1896 46 NA NA NOT_NAMED 1896-11-06 21:00:00 ET 41.2498 -43.1496 main 1003 991 _____________P -1 41.2498 -43.1496 EX 62 7 226
1896305N15301 1896 46 NA NA NOT_NAMED 1896-11-07 00:00:00 ET 41.0000 -43.5000 main 993 983 _____________O -1 41.0000 -43.5000 EX 60 8 229
1896305N15301 1896 46 NA NA NOT_NAMED 1896-11-07 03:00:00 ET 40.7500 -43.8999 main 983 981 _____________P -1 40.7500 -43.8999 EX 60 8 231
1896305N15301 1896 46 NA NA NOT_NAMED 1896-11-07 06:00:00 ET 40.5000 -44.3000 main 984 975 _____________O -1 40.5000 -44.3000 EX 60 9 232
1896305N15301 1896 46 NA NA NOT_NAMED 1896-11-07 09:00:00 ET 40.2200 -44.7857 main 980 975 _____________P -1 40.2200 -44.7857 EX 57 7 227
1896305N15301 1896 46 NA NA NOT_NAMED 1896-11-07 12:00:00 ET 40.0000 -45.0000 main 986 986 _____________O -1 40.0000 -45.0000 EX 55 3 159
1896305N15301 1896 46 NA NA NOT_NAMED 1896-11-07 15:00:00 ET 39.9204 -44.6271 main 1016 1016 _____________P -1 39.9204 -44.6271 EX 55 8 97
1896305N15301 1896 46 NA NA NOT_NAMED 1896-11-07 18:00:00 ET 39.9000 -44.0000 main 1050 1050 _____________O -1 39.9000 -44.0000 EX 55 9 96
1896305N15301 1896 46 NA NA NOT_NAMED 1896-11-07 21:00:00 ET 39.8348 -43.4997 main 1087 1087 _____________P -1 39.8348 -43.4997 EX 52 8 97
1896305N15301 1896 46 NA NA NOT_NAMED 1896-11-08 00:00:00 ET 39.8000 -43.0000 main 1116 1116 _____________O -1 39.8000 -43.0000 EX 50 8 90
1896305N15301 1896 46 NA NA NOT_NAMED 1896-11-08 03:00:00 ET 39.8348 -42.5003 main 1146 1144 _____________P -1 39.8348 -42.5003 EX 50 8 83
1896305N15301 1896 46 NA NA NOT_NAMED 1896-11-08 06:00:00 ET 39.9000 -42.0000 main 1169 1169 _____________O -1 39.9000 -42.0000 EX 50 7 85
1896305N15301 1896 46 NA NA NOT_NAMED 1896-11-08 09:00:00 ET 39.9041 -41.5434 main 1200 1200 _____________P -1 39.9041 -41.5434 EX 50 8 83
1896305N15301 1896 46 NA NA NOT_NAMED 1896-11-08 12:00:00 ET 40.0000 -41.0000 main 1224 1223 _____________O -1 40.0000 -41.0000 EX 50 11 68
1896305N15301 1896 46 NA NA NOT_NAMED 1896-11-08 15:00:00 ET 40.3126 -40.2536 main 1247 1246 _____________P -1 40.3126 -40.2536 EX 47 14 60
1896305N15301 1896 46 NA NA NOT_NAMED 1896-11-08 18:00:00 ET 40.7000 -39.4000 main 1279 1279 _____________O -1 40.7000 -39.4000 EX 45 14 61
1896305N15301 1896 46 NA NA NOT_NAMED 1896-11-08 21:00:00 ET 41.0053 -38.6230 main 1315 1315 _____________P -1 41.0053 -38.6230 EX 45 14 65
1896305N15301 1896 46 NA NA NOT_NAMED 1896-11-09 00:00:00 ET 41.3000 -37.7000 main 1359 1359 _____________O -1 41.3000 -37.7000 EX 45 17 70
1896305N15301 1896 46 NA NA NOT_NAMED 1896-11-09 03:00:00 ET 41.6006 -36.4671 main 1426 1426 _____________P -1 41.6006 -36.4671 EX 42 20 73
1896305N15301 1896 46 NA NA NOT_NAMED 1896-11-09 06:00:00 ET 41.9000 -35.1000 main 1507 1507 _____________O -1 41.9000 -35.1000 EX 40 21 73
1896305N15301 1896 46 NA NA NOT_NAMED 1896-11-09 09:00:00 ET 42.1988 -33.7914 main 1584 1584 _____________P -1 42.1988 -33.7914 EX 40 20 73
1896305N15301 1896 46 NA NA NOT_NAMED 1896-11-09 12:00:00 ET 42.5000 -32.5000 main 1663 1663 _____________O -1 42.5000 -32.5000 EX 40 20 72
1896305N15301 1896 46 NA NA NOT_NAMED 1896-11-09 15:00:00 ET 42.8025 -31.2424 main 1744 1679 _____________P -1 42.8025 -31.2424 EX 37 19 72
1896305N15301 1896 46 NA NA NOT_NAMED 1896-11-09 18:00:00 ET 43.1000 -30.0000 main 1671 _____________O -1 43.1000 -30.0000 EX 35 19 72

About IBTrACS Database

This database is a web-friendly format of International Best Track Archive for Climate Stewardship (IBTrACS), a global best track data archive curated by NOAA dating back to 1842.

Updated: 2021-11-26